createdAt,value
2019-05-17T00:56:37.038Z,99.90
2019-05-17T01:18:03.694Z,99.90
2019-05-17T01:43:09.174Z,99.90
2019-05-17T02:44:24.346Z,99.90
2019-05-17T03:43:15.469Z,99.90
2019-05-17T03:55:23.557Z,99.90
2019-05-17T03:57:53.746Z,99.90
2019-05-17T05:08:12.977Z,99.90
2019-05-17T05:20:22.103Z,99.90
2019-05-17T05:30:05.999Z,99.90
2019-05-17T06:06:45.089Z,99.90
2019-05-17T06:45:28.585Z,99.90
2019-05-17T06:47:58.567Z,99.90
2019-05-17T07:09:35.982Z,99.90
2019-05-17T07:12:05.106Z,99.90
2019-05-17T07:14:35.074Z,99.90
2019-05-17T07:23:49.904Z,99.90
2019-05-17T07:26:20.532Z,99.90
2019-05-17T07:28:50.530Z,99.50
2019-05-17T07:32:36.904Z,99.50
2019-05-17T07:35:07.402Z,99.00
2019-05-17T07:37:39.550Z,98.00
2019-05-17T07:40:10.798Z,97.70
2019-05-17T07:42:41.220Z,99.60
2019-05-17T07:45:11.945Z,98.20
2019-05-17T08:16:56.245Z,94.20
2019-05-17T08:19:26.154Z,95.00
2019-05-17T08:21:56.304Z,94.10
2019-05-17T08:24:26.269Z,94.10
2019-05-17T08:46:02.887Z,91.70
2019-05-17T08:55:33.392Z,90.70
2019-05-17T08:58:03.513Z,91.20
2019-05-17T09:00:33.561Z,91.30
2019-05-17T09:14:12.751Z,89.50
2019-05-17T09:16:42.764Z,90.30
2019-05-17T09:19:12.999Z,90.00
2019-05-17T09:37:41.406Z,83.30
2019-05-17T09:40:11.585Z,81.50
2019-05-17T09:42:41.604Z,83.10
2019-05-17T09:45:12.593Z,86.60
2019-05-17T09:47:42.547Z,83.20
2019-05-17T09:50:13.456Z,83.20
2019-05-17T09:52:43.392Z,81.50
2019-05-17T09:55:13.377Z,80.80
2019-05-17T09:57:43.306Z,80.10
2019-05-17T10:00:14.820Z,80.60
2019-05-17T10:02:45.359Z,82.60
2019-05-17T10:05:15.457Z,80.70
2019-05-17T10:07:45.366Z,78.70
2019-05-17T10:10:15.869Z,81.80
2019-05-17T10:12:46.644Z,81.10
2019-05-17T10:15:16.890Z,80.00
2019-05-17T10:17:46.928Z,76.30
2019-05-17T10:20:19.814Z,77.00
2019-05-17T10:22:50.397Z,77.30
2019-05-17T10:29:11.340Z,76.10
2019-05-17T11:09:30.868Z,69.40
2019-05-17T11:11:59.989Z,67.40
2019-05-17T11:30:49.953Z,68.10
2019-05-17T11:33:20.028Z,67.40
2019-05-17T11:35:50.125Z,65.00
2019-05-17T11:38:20.235Z,64.80
2019-05-17T11:40:50.411Z,65.70
2019-05-17T11:43:20.431Z,63.00
2019-05-17T11:45:50.417Z,62.80
2019-05-17T11:48:20.570Z,63.50
2019-05-17T11:54:35.278Z,62.60
2019-05-17T11:57:05.311Z,63.70
2019-05-17T11:59:35.617Z,65.00
2019-05-17T12:02:05.663Z,63.30
2019-05-17T12:04:35.636Z,61.20
2019-05-17T12:07:05.653Z,60.00
2019-05-17T12:09:37.595Z,62.10
2019-05-17T12:15:58.686Z,61.00
2019-05-17T12:18:29.029Z,59.20
2019-05-17T12:20:59.076Z,57.50
2019-05-17T12:23:28.998Z,57.50
2019-05-17T12:25:58.948Z,56.70
2019-05-17T12:32:20.369Z,59.10
2019-05-17T12:34:50.347Z,57.30
2019-05-17T12:37:20.256Z,55.90
2019-05-17T12:39:50.363Z,55.00
2019-05-17T12:42:20.460Z,53.90
2019-05-17T12:44:50.490Z,53.70
2019-05-17T12:47:20.541Z,53.90
2019-05-17T12:49:50.498Z,53.50
2019-05-17T12:56:05.191Z,57.50
2019-05-17T13:05:36.989Z,56.20
2019-05-17T13:08:07.174Z,56.50
2019-05-17T13:10:37.739Z,57.30
2019-05-17T13:13:09.750Z,56.60
2019-05-17T13:15:40.093Z,53.00
2019-05-17T13:18:10.685Z,56.00
2019-05-17T13:24:31.692Z,56.30
2019-05-17T13:27:03.218Z,57.80
2019-05-17T13:29:33.149Z,57.30
2019-05-17T13:32:03.187Z,55.70
2019-05-17T13:34:33.151Z,58.00
2019-05-17T13:37:03.762Z,58.40
2019-05-17T13:39:34.328Z,57.40
2019-05-17T13:42:04.425Z,57.00
2019-05-17T13:48:25.321Z,55.20
2019-05-17T13:51:32.310Z,55.40
2019-05-17T14:09:17.632Z,57.10
2019-05-17T14:21:07.186Z,57.60
2019-05-17T14:46:23.802Z,60.80
2019-05-17T14:56:06.949Z,73.00
2019-05-17T15:05:49.973Z,71.50
2019-05-17T15:08:19.888Z,69.70
2019-05-17T15:10:49.853Z,71.20
2019-05-17T15:13:19.935Z,69.30
2019-05-17T15:15:49.907Z,70.30
2019-05-17T15:21:45.950Z,65.90
2019-05-17T15:24:15.996Z,65.00
2019-05-17T15:26:46.026Z,62.60
2019-05-17T15:29:16.456Z,64.40
2019-05-17T15:35:37.481Z,63.50
2019-05-17T15:38:10.948Z,77.40
2019-05-17T15:40:39.238Z,80.50
2019-05-17T15:43:09.293Z,83.30
2019-05-17T15:45:39.246Z,85.10
2019-05-17T15:51:54.161Z,85.00
2019-05-17T15:54:24.116Z,86.60
2019-05-17T15:56:54.116Z,88.70
2019-05-17T16:03:15.149Z,90.30
2019-05-17T17:03:44.129Z,96.80
2019-05-17T17:06:10.821Z,97.90
2019-05-17T17:12:44.581Z,98.10
2019-05-17T17:15:14.753Z,99.20
2019-05-17T17:24:07.141Z,99.90
2019-05-17T17:26:37.170Z,99.90
2019-05-17T17:32:51.798Z,99.80
2019-05-17T17:35:21.978Z,99.80
2019-05-17T17:37:51.981Z,99.60
2019-05-17T17:51:52.162Z,99.10
2019-05-17T17:54:22.186Z,99.40
2019-05-17T17:56:52.312Z,99.60
2019-05-17T18:02:54.733Z,99.90
2019-05-17T18:05:25.333Z,99.90
2019-05-17T18:11:46.981Z,99.90
2019-05-17T18:14:16.959Z,99.90
2019-05-17T18:32:55.220Z,99.90
2019-05-17T18:35:25.680Z,99.90
2019-05-17T18:37:55.789Z,99.90
2019-05-17T18:40:26.114Z,99.90
2019-05-17T18:46:47.551Z,99.90
2019-05-17T18:59:13.149Z,99.90
2019-05-17T19:01:43.349Z,99.90
2019-05-17T19:08:04.046Z,99.90
2019-05-17T19:10:34.036Z,99.90
2019-05-17T19:13:03.991Z,99.90
2019-05-17T19:15:33.916Z,99.90
2019-05-17T19:18:04.077Z,99.90
2019-05-17T19:20:34.179Z,99.90
2019-05-17T19:29:07.887Z,99.90
2019-05-17T19:31:38.426Z,99.90
2019-05-17T19:34:09.337Z,99.90
2019-05-17T19:36:41.570Z,99.90
2019-05-17T19:39:11.494Z,99.90
2019-05-17T19:41:41.589Z,99.90
2019-05-17T19:44:11.523Z,99.90
2019-05-17T19:46:42.183Z,99.90
2019-05-17T19:49:12.267Z,99.90
2019-05-17T19:55:13.326Z,99.90
2019-05-17T19:57:43.319Z,99.90
2019-05-17T20:00:14.074Z,99.90
2019-05-17T20:02:44.193Z,99.90
2019-05-17T20:05:16.335Z,99.90
2019-05-17T20:07:46.248Z,99.90
2019-05-17T20:10:17.245Z,99.90
2019-05-17T20:12:47.250Z,99.90
2019-05-17T20:15:19.762Z,99.90
2019-05-17T20:17:50.173Z,99.90
2019-05-17T20:20:20.340Z,99.90
2019-05-17T20:22:50.311Z,99.90
2019-05-17T20:25:20.501Z,99.90
2019-05-17T20:27:50.405Z,99.90
2019-05-17T20:30:20.921Z,99.90
2019-05-17T20:36:42.509Z,99.90
2019-05-17T20:46:31.621Z,99.90
2019-05-17T20:49:01.603Z,99.90
2019-05-17T20:51:31.931Z,99.90
2019-05-17T20:54:02.054Z,99.90
2019-05-17T20:56:33.460Z,99.90
2019-05-17T20:59:04.089Z,99.90
2019-05-17T21:01:34.229Z,99.90
2019-05-17T21:04:04.349Z,99.90
2019-05-17T21:06:34.494Z,99.90
2019-05-17T21:09:05.408Z,99.90
2019-05-17T21:11:35.983Z,99.90
2019-05-17T21:42:41.729Z,99.90
2019-05-17T21:45:12.044Z,99.90
2019-05-17T21:47:42.038Z,99.90
2019-05-17T21:50:12.402Z,99.90
2019-05-17T21:52:42.428Z,99.90
2019-05-17T21:55:12.678Z,99.90
2019-05-17T21:57:42.593Z,99.90
2019-05-17T22:00:18.210Z,99.90
2019-05-17T22:02:48.139Z,99.90
2019-05-17T22:06:15.746Z,99.90
2019-05-17T22:08:45.925Z,99.90
2019-05-17T22:11:16.799Z,99.90
2019-05-17T22:13:47.140Z,99.90
2019-05-17T22:16:19.950Z,99.90
2019-05-17T22:18:49.081Z,99.90
2019-05-17T22:21:19.047Z,99.90
2019-05-17T22:23:48.967Z,99.90
2019-05-17T22:26:18.931Z,99.90
2019-05-17T22:28:48.843Z,99.90
2019-05-17T22:31:18.797Z,99.90
2019-05-17T22:37:33.741Z,99.90
2019-05-17T22:47:17.212Z,99.90
2019-05-17T22:49:47.141Z,99.90
2019-05-17T22:52:17.160Z,99.90
2019-05-17T22:54:47.168Z,99.90
2019-05-17T23:16:07.224Z,99.90
2019-05-17T23:18:37.716Z,99.90
2019-05-17T23:21:08.003Z,99.90
2019-05-17T23:23:37.993Z,99.90
2019-05-17T23:29:59.682Z,99.90
2019-05-17T23:32:29.803Z,99.90
2019-05-17T23:34:59.820Z,99.90
2019-05-17T23:37:29.853Z,99.90
2019-05-17T23:39:59.777Z,99.90
2019-05-17T23:42:29.896Z,99.90
2019-05-17T23:44:59.901Z,99.90
2019-05-17T23:51:20.829Z,99.90
2019-05-17T23:53:50.744Z,99.90
2019-05-17T23:56:21.092Z,99.90
2019-05-17T23:58:51.294Z,99.90
